.
WxDataArchive / Data Records for 2011-11-06
2011-11-05 November 2011 2011-11-07

Data Records for Sunday, 06 November 2011

Time	Temp	Chill	HIndex	Humid	Dewpt	 Wind 	HiWind	WindDir	Rain 	Barom 
-----	----	-----	------	-----	-----	------	------	-------	-----	----- 
00:00	36.9	36.9	36.9	67	27.0	0	0	---	0.00	30.198 
00:05	36.5	36.5	36.5	68	27.0	0	0	---	0.00	30.198 
00:10	36.2	36.2	36.2	68	26.7	0	0	---	0.00	30.198 
00:15	35.9	35.9	35.9	69	26.7	0	0	---	0.00	30.193 
00:20	35.6	35.6	35.6	69	26.4	0	0	---	0.00	30.193 
00:25	35.3	35.3	35.3	70	26.5	0	0	---	0.00	30.193 
00:30	35.2	35.2	35.2	72	27.1	0	0	---	0.00	30.195 
00:35	34.9	34.9	34.9	73	27.1	0	0	---	0.00	30.195 
00:40	34.7	34.7	34.7	73	26.9	0	0	---	0.00	30.195 
00:45	34.6	34.6	34.6	73	26.9	0	0	---	0.00	30.193 
00:50	34.4	34.4	34.4	74	27.0	0	0	---	0.00	30.193 
00:55	34.3	34.3	34.3	75	27.2	0	0	---	0.00	30.193 
01:00	34.1	34.1	34.1	75	27.0	0	0	---	0.00	30.188 
01:05	34.1	34.1	34.1	77	27.7	0	0	---	0.00	30.188 
01:10	34.0	34.0	34.0	77	27.6	0	0	---	0.00	30.188 
01:15	33.8	33.8	33.8	77	27.4	0	0	---	0.00	30.186 
01:20	33.7	33.7	33.7	78	27.6	0	0	---	0.00	30.186 
01:25	33.5	33.5	33.5	78	27.4	0	0	---	0.00	30.186 
01:30	33.5	33.5	33.5	79	27.7	0	0	---	0.00	30.182 
01:35	33.4	33.4	33.4	79	27.6	0	0	---	0.00	30.182 
01:40	33.4	33.4	33.4	79	27.6	0	0	---	0.00	30.182 
01:45	33.2	33.2	33.2	79	27.4	0	0	---	0.00	30.182 
01:50	33.1	33.1	33.1	79	27.3	0	0	---	0.00	30.182 
01:55	33.1	33.1	33.1	79	27.3	0	0	---	0.00	30.182 
02:00	33.1	33.1	33.1	79	27.3	0	0	---	0.00	30.182 
02:05	32.9	32.9	32.9	79	27.1	0	0	---	0.00	30.180 
02:10	32.8	32.8	32.8	79	27.0	0	0	---	0.00	30.180 
02:15	32.7	32.7	32.7	79	26.9	0	0	---	0.00	30.182 
02:20	32.7	32.7	32.7	79	26.9	0	0	---	0.00	30.182 
02:25	32.5	32.5	32.5	80	27.0	0	0	---	0.00	30.182 
02:30	32.4	32.4	32.4	80	26.9	0	0	---	0.00	30.188 
02:35	32.2	32.2	32.2	80	26.7	0	0	---	0.00	30.188 
02:40	32.1	32.1	32.1	81	26.9	0	0	---	0.00	30.188 
02:45	31.9	31.9	31.9	81	26.7	0	0	---	0.00	30.192 
02:50	31.9	31.9	31.9	81	26.7	0	0	---	0.00	30.192 
02:55	31.8	31.8	31.8	81	26.6	0	0	---	0.00	30.192 
03:00	31.8	31.8	31.8	82	26.9	0	0	---	0.00	30.194 
03:05	31.6	31.6	31.6	82	26.7	0	0	---	0.00	30.194 
03:10	31.6	31.6	31.6	82	26.7	0	0	---	0.00	30.194 
03:15	31.6	31.6	31.6	82	26.7	0	0	---	0.00	30.196 
03:20	31.6	31.6	31.6	82	26.7	0	0	---	0.00	30.196 
03:25	31.6	31.6	31.6	83	27.0	0	0	---	0.00	30.196 
03:30	31.5	31.5	31.5	83	26.9	0	0	---	0.00	30.197 
03:35	31.5	31.5	31.5	83	26.9	0	0	---	0.00	30.197 
03:40	31.5	31.5	31.5	83	26.9	0	0	---	0.00	30.197 
03:45	31.5	31.5	31.5	84	27.2	0	0	---	0.00	30.202 
03:50	31.6	31.6	31.6	84	27.3	0	0	---	0.00	30.202 
03:55	31.8	31.8	31.8	84	27.5	0	0	---	0.00	30.202 
04:00	31.9	31.9	31.9	83	27.3	0	0	---	0.00	30.205 
04:05	31.9	31.9	31.9	83	27.3	0	0	---	0.00	30.205 
04:10	32.1	32.1	32.1	83	27.5	0	0	---	0.00	30.205 
04:15	31.9	31.9	31.9	84	27.6	0	0	---	0.00	30.208 
04:20	31.9	31.9	31.9	84	27.6	0	0	---	0.00	30.208 
04:25	31.9	31.9	31.9	84	27.6	0	0	---	0.00	30.208 
04:30	32.1	32.1	32.1	84	27.8	0	0	---	0.00	30.208 
04:35	32.1	32.1	32.1	84	27.8	0	0	---	0.00	30.208 
04:40	32.1	32.1	32.1	83	27.5	0	0	---	0.00	30.208 
04:45	32.1	32.1	32.1	84	27.8	0	0	---	0.00	30.209 
04:50	32.1	32.1	32.1	84	27.8	0	0	---	0.00	30.209 
04:55	32.1	32.1	32.1	84	27.8	0	0	---	0.00	30.209 
05:00	32.1	32.1	32.1	84	27.8	0	0	---	0.00	30.214 
05:05	32.1	32.1	32.1	84	27.8	0	0	---	0.00	30.214 
05:10	32.1	32.1	32.1	84	27.8	0	0	---	0.00	30.214 
05:15	32.1	32.1	32.1	84	27.8	0	0	---	0.00	30.224 
05:20	32.1	32.1	32.1	84	27.8	0	0	---	0.00	30.224 
05:25	32.1	32.1	32.1	84	27.8	0	0	---	0.00	30.224 
05:30	32.2	32.2	32.2	84	27.9	0	0	---	0.00	30.224 
05:35	32.2	32.2	32.2	85	28.2	0	0	---	0.00	30.224 
05:40	32.4	32.4	32.4	84	28.1	0	0	---	0.00	30.224 
05:45	32.4	32.4	32.4	84	28.1	0	0	---	0.00	30.222 
05:50	32.4	32.4	32.4	84	28.1	0	0	---	0.00	30.222 
05:55	32.4	32.4	32.4	85	28.4	0	0	---	0.00	30.222 
06:00	32.4	32.4	32.4	85	28.4	0	0	---	0.00	30.223 
06:05	32.4	32.4	32.4	85	28.4	0	0	---	0.00	30.223 
06:10	32.4	32.4	32.4	85	28.4	0	0	---	0.00	30.223 
06:15	32.5	32.5	32.5	85	28.5	0	0	---	0.00	30.221 
06:20	32.5	32.5	32.5	85	28.5	0	0	---	0.00	30.221 
06:25	32.5	32.5	32.5	85	28.5	0	0	---	0.00	30.221 
06:30	32.8	32.8	32.8	86	29.1	0	0	---	0.00	30.218 
06:35	32.9	32.9	32.9	86	29.2	0	0	---	0.00	30.218 
06:40	33.2	33.2	33.2	86	29.5	0	0	---	0.00	30.218 
06:45	33.5	33.5	33.5	86	29.8	0	1	90	0.00	30.218 
06:50	34.0	34.0	34.0	85	30.0	0	0	---	0.00	30.218 
06:55	34.3	34.3	34.3	85	30.3	0	0	---	0.00	30.218 
07:00	34.6	34.6	34.6	84	30.3	0	1	90	0.00	30.218 
07:05	34.7	34.7	34.7	84	30.4	0	0	---	0.00	30.218 
07:10	34.9	34.9	34.9	84	30.6	0	0	---	0.00	30.218 
07:15	35.2	35.2	35.2	83	30.6	0	0	---	0.00	30.229 
07:20	35.2	35.2	35.2	83	30.6	0	0	---	0.00	30.229 
07:25	35.2	35.2	35.2	83	30.6	0	0	---	0.00	30.229 
07:30	35.2	35.2	35.2	83	30.6	0	0	---	0.00	30.233 
07:35	35.0	35.0	35.0	83	30.4	0	0	---	0.00	30.233 
07:40	35.2	35.2	35.2	83	30.6	0	0	---	0.00	30.233 
07:45	35.2	35.2	35.2	84	30.9	0	0	---	0.00	30.234 
07:50	35.3	35.3	35.3	84	31.0	0	0	---	0.00	30.234 
07:55	35.8	35.8	35.8	85	31.7	0	0	---	0.00	30.234 
08:00	36.3	36.3	36.3	85	32.2	0	0	---	0.00	30.238 
08:05	37.5	37.5	37.5	86	33.7	0	1	90	0.00	30.238 
08:10	38.9	38.9	38.9	84	34.5	0	1	90	0.00	30.238 
08:15	40.5	40.5	40.5	81	35.1	0	4	90	0.00	30.241 
08:20	41.9	41.9	41.9	79	35.9	0	2	90	0.00	30.241 
08:25	42.9	42.9	42.9	77	36.2	0	2	90	0.00	30.241 
08:30	43.9	43.9	43.9	75	36.5	0	3	90	0.00	30.240 
08:35	44.8	44.8	44.8	74	37.0	0	3	315	0.00	30.240 
08:40	45.5	45.5	45.5	72	37.0	1	3	45	0.00	30.240 
08:45	46.1	46.1	46.1	71	37.2	1	4	112	0.00	30.235 
08:50	46.5	46.5	46.5	71	37.6	0	3	248	0.00	30.235 
08:55	47.1	47.1	47.1	70	37.8	1	4	270	0.00	30.235 
09:00	47.6	47.6	47.6	69	37.9	1	3	270	0.00	30.236 
09:05	48.0	48.0	48.0	68	37.9	1	6	248	0.00	30.236 
09:10	48.5	48.5	48.5	67	38.0	1	7	45	0.00	30.236 
09:15	48.9	48.9	48.9	67	38.4	1	6	248	0.00	30.226 
09:20	49.2	49.2	49.2	65	37.9	2	7	225	0.00	30.226 
09:25	49.6	49.6	49.6	65	38.3	1	5	225	0.00	30.226 
09:30	50.1	50.1	50.1	64	38.4	2	7	90	0.00	30.221 
09:35	50.2	50.2	50.2	64	38.5	2	6	270	0.00	30.221 
09:40	50.7	50.7	50.7	63	38.6	1	5	270	0.00	30.221 
09:45	51.1	51.1	51.1	63	38.9	1	5	270	0.00	30.220 
09:50	51.6	51.6	51.6	63	39.4	1	5	112	0.00	30.220 
09:55	51.9	51.9	51.9	62	39.3	2	5	270	0.00	30.220 
10:00	52.0	52.0	52.0	61	39.0	3	9	270	0.00	30.213 
10:05	52.5	52.5	52.5	62	39.9	1	5	248	0.00	30.213 
10:10	52.6	52.6	52.6	61	39.5	2	5	248	0.00	30.213 
10:15	52.8	52.8	52.8	61	39.7	1	6	270	0.00	30.209 
10:20	53.1	53.1	53.1	60	39.6	2	6	248	0.00	30.209 
10:25	53.3	53.3	53.3	60	39.8	2	5	248	0.00	30.209 
10:30	53.6	53.6	53.6	59	39.6	2	10	248	0.00	30.206 
10:35	53.9	53.9	53.9	60	40.3	1	5	248	0.00	30.206 
10:40	54.4	54.4	54.4	58	39.9	2	5	248	0.00	30.206 
10:45	54.5	54.5	54.5	58	40.0	2	6	248	0.00	30.206 
10:50	54.8	54.8	54.8	58	40.3	2	6	292	0.00	30.206 
10:55	55.1	55.1	55.1	58	40.6	2	10	248	0.00	30.206 
11:00	55.7	55.7	55.7	58	41.2	1	9	270	0.00	30.212 
11:05	55.9	55.9	55.9	55	40.0	3	7	248	0.00	30.212 
11:10	55.9	55.9	55.9	55	40.0	3	6	248	0.00	30.212 
11:15	56.0	56.0	56.0	55	40.1	3	6	248	0.00	30.206 
11:20	56.3	56.3	56.3	54	39.9	3	5	248	0.00	30.206 
11:25	56.6	56.6	56.6	55	40.6	2	6	248	0.00	30.206 
11:30	56.9	56.9	56.9	53	39.9	3	11	270	0.00	30.204 
11:35	57.2	57.2	57.2	53	40.2	2	10	270	0.00	30.204 
11:40	57.5	57.5	57.5	54	41.0	2	6	225	0.00	30.204 
11:45	57.8	57.8	57.8	52	40.3	2	5	248	0.00	30.201 
11:50	58.0	58.0	58.0	54	41.4	1	3	292	0.00	30.201 
11:55	58.3	58.3	58.3	51	40.3	3	10	248	0.00	30.201 
12:00	58.4	58.4	58.4	52	40.8	2	7	248	0.00	30.201 
12:05	58.6	58.6	58.6	51	40.5	2	6	248	0.00	30.201 
12:10	58.7	58.7	58.7	51	40.6	2	7	90	0.00	30.201 
12:15	58.9	58.9	58.9	50	40.3	2	10	248	0.00	30.199 
12:20	58.9	58.9	58.9	50	40.3	3	9	248	0.00	30.199 
12:25	58.9	58.9	58.9	50	40.3	2	5	248	0.00	30.199 
12:30	59.2	59.2	59.2	51	41.1	2	9	248	0.00	30.196 
12:35	59.3	59.3	59.3	50	40.7	2	7	292	0.00	30.196 
12:40	59.5	59.5	59.5	50	40.8	2	7	270	0.00	30.196 
12:45	59.6	59.6	59.6	49	40.4	2	6	270	0.00	30.187 
12:50	59.9	59.9	59.9	49	40.7	2	7	248	0.00	30.187 
12:55	60.2	60.2	60.2	49	41.0	2	6	248	0.00	30.187 
13:00	60.2	60.2	60.2	49	41.0	2	7	270	0.00	30.183 
13:05	60.2	60.2	60.2	49	41.0	2	7	292	0.00	30.183 
13:10	60.4	60.4	60.4	49	41.1	2	5	270	0.00	30.183 
13:15	60.4	60.4	60.4	49	41.1	3	10	248	0.00	30.173 
13:20	60.4	60.4	60.4	49	41.1	2	5	270	0.00	30.173 
13:25	60.5	60.5	60.5	48	40.7	3	7	270	0.00	30.173 
13:30	60.5	60.5	60.5	49	41.2	2	10	248	0.00	30.171 
13:35	60.7	60.7	60.7	47	40.3	3	7	270	0.00	30.171 
13:40	60.7	60.7	60.7	48	40.9	2	12	248	0.00	30.171 
13:45	60.7	60.7	60.7	48	40.9	3	7	248	0.00	30.167 
13:50	60.9	60.9	60.9	48	41.1	2	5	248	0.00	30.167 
13:55	60.9	60.9	60.9	47	40.5	2	10	270	0.00	30.167 
14:00	60.5	60.5	60.5	48	40.7	3	9	270	0.00	30.159 
14:05	60.7	60.7	60.7	48	40.9	3	7	248	0.00	30.159 
14:10	61.0	61.0	61.0	48	41.2	2	7	90	0.00	30.159 
14:15	61.2	61.2	61.2	49	41.9	1	9	180	0.00	30.157 
14:20	61.2	61.2	61.2	47	40.8	2	8	270	0.00	30.157 
14:25	61.2	61.2	61.2	48	41.3	2	6	270	0.00	30.157 
14:30	61.3	61.3	61.3	48	41.4	1	4	248	0.00	30.153 
14:35	61.3	61.3	61.3	48	41.4	1	6	270	0.00	30.153 
14:40	61.3	61.3	61.3	49	42.0	1	5	248	0.00	30.153 
14:45	61.3	61.3	61.3	47	40.9	4	10	270	0.00	30.152 
14:50	61.3	61.3	61.3	48	41.4	2	6	248	0.00	30.152 
14:55	61.5	61.5	61.5	48	41.6	2	5	248	0.00	30.152 
15:00	61.6	61.6	61.6	48	41.7	1	6	248	0.00	30.143 
15:05	61.8	61.8	61.8	48	41.9	2	6	270	0.00	30.143 
15:10	61.6	61.6	61.6	48	41.7	2	6	270	0.00	30.143 
15:15	61.6	61.6	61.6	48	41.7	2	5	270	0.00	30.137 
15:20	61.6	61.6	61.6	48	41.7	2	4	225	0.00	30.137 
15:25	61.5	61.5	61.5	48	41.6	2	6	248	0.00	30.137 
15:30	61.3	61.3	61.3	48	41.4	1	6	90	0.00	30.138 
15:35	61.3	61.3	61.3	48	41.4	2	5	248	0.00	30.138 
15:40	61.2	61.2	61.2	48	41.3	2	6	270	0.00	30.138 
15:45	61.0	61.0	61.0	48	41.2	2	6	270	0.00	30.147 
15:50	60.9	60.9	60.9	49	41.6	1	6	90	0.00	30.147 
15:55	60.7	60.7	60.7	48	40.9	2	6	270	0.00	30.147 
16:00	60.5	60.5	60.5	48	40.7	2	6	270	0.00	30.143 
16:05	60.5	60.5	60.5	49	41.2	2	5	248	0.00	30.143 
16:10	60.5	60.5	60.5	49	41.2	2	6	248	0.00	30.143 
16:15	60.4	60.4	60.4	50	41.7	1	4	270	0.00	30.139 
16:20	60.2	60.2	60.2	49	41.0	2	9	270	0.00	30.139 
16:25	60.2	60.2	60.2	49	41.0	1	5	270	0.00	30.139 
16:30	60.1	60.1	60.1	50	41.4	1	6	225	0.00	30.144 
16:35	59.9	59.9	59.9	50	41.2	1	4	248	0.00	30.144 
16:40	59.6	59.6	59.6	50	40.9	1	5	270	0.00	30.144 
16:45	59.3	59.3	59.3	51	41.2	1	5	45	0.00	30.147 
16:50	59.2	59.2	59.2	50	40.6	1	5	248	0.00	30.147 
16:55	59.0	59.0	59.0	51	40.9	1	4	225	0.00	30.147 
17:00	58.7	58.7	58.7	51	40.6	1	4	248	0.00	30.152 
17:05	58.6	58.6	58.6	51	40.5	1	5	315	0.00	30.152 
17:10	58.4	58.4	58.4	52	40.8	1	4	248	0.00	30.152 
17:15	58.1	58.1	58.1	53	41.1	1	6	248	0.00	30.148 
17:20	58.0	58.0	58.0	53	41.0	1	4	248	0.00	30.148 
17:25	57.8	57.8	57.8	53	40.8	1	5	248	0.00	30.148 
17:30	57.6	57.6	57.6	53	40.6	1	5	270	0.00	30.150 
17:35	57.3	57.3	57.3	54	40.8	0	2	270	0.00	30.150 
17:40	57.0	57.0	57.0	54	40.5	1	3	270	0.00	30.150 
17:45	56.9	56.9	56.9	54	40.4	1	3	270	0.00	30.154 
17:50	56.7	56.7	56.7	55	40.7	1	3	270	0.00	30.154 
17:55	56.6	56.6	56.6	55	40.6	1	3	45	0.00	30.154 
18:00	56.6	56.6	56.6	55	40.6	1	3	0	0.00	30.157 
18:05	56.6	56.6	56.6	56	41.1	1	2	225	0.00	30.157 
18:10	56.6	56.6	56.6	56	41.1	0	3	248	0.00	30.157 
18:15	56.7	56.7	56.7	55	40.7	1	4	248	0.00	30.159 
18:20	56.7	56.7	56.7	55	40.7	1	3	248	0.00	30.159 
18:25	56.9	56.9	56.9	55	40.9	1	3	270	0.00	30.159 
18:30	56.9	56.9	56.9	55	40.9	1	3	248	0.00	30.162 
18:35	57.0	57.0	57.0	55	41.0	0	3	248	0.00	30.162 
18:40	57.0	57.0	57.0	55	41.0	1	6	248	0.00	30.162 
18:45	57.0	57.0	57.0	55	41.0	0	3	225	0.00	30.168 
18:50	57.0	57.0	57.0	56	41.5	0	2	225	0.00	30.168 
18:55	57.0	57.0	57.0	56	41.5	0	4	292	0.00	30.168 
19:00	57.0	57.0	57.0	56	41.5	1	4	270	0.00	30.170 
19:05	57.0	57.0	57.0	56	41.5	0	3	270	0.00	30.170 
19:10	57.0	57.0	57.0	56	41.5	0	2	270	0.00	30.170 
19:15	57.0	57.0	57.0	56	41.5	1	3	315	0.00	30.173 
19:20	57.0	57.0	57.0	56	41.5	1	5	270	0.00	30.173 
19:25	57.0	57.0	57.0	55	41.0	2	7	248	0.00	30.173 
19:30	57.2	57.2	57.2	55	41.2	1	5	248	0.00	30.173 
19:35	57.2	57.2	57.2	55	41.2	1	4	270	0.00	30.173 
19:40	57.2	57.2	57.2	54	40.7	1	5	90	0.00	30.173 
19:45	57.3	57.3	57.3	54	40.8	1	4	248	0.00	30.171 
19:50	57.3	57.3	57.3	54	40.8	2	5	248	0.00	30.171 
19:55	57.3	57.3	57.3	54	40.8	2	6	248	0.00	30.171 
20:00	57.5	57.5	57.5	54	41.0	1	6	270	0.00	30.170 
20:05	57.5	57.5	57.5	54	41.0	1	5	270	0.00	30.170 
20:10	57.5	57.5	57.5	54	41.0	1	4	248	0.00	30.170 
20:15	57.3	57.3	57.3	54	40.8	1	5	248	0.00	30.164 
20:20	57.3	57.3	57.3	54	40.8	1	7	248	0.00	30.164 
20:25	57.3	57.3	57.3	54	40.8	2	6	248	0.00	30.164 
20:30	57.3	57.3	57.3	54	40.8	1	5	270	0.00	30.163 
20:35	57.2	57.2	57.2	54	40.7	1	4	248	0.00	30.163 
20:40	57.2	57.2	57.2	54	40.7	1	5	248	0.00	30.163 
20:45	57.0	57.0	57.0	54	40.5	1	5	248	0.00	30.161 
20:50	57.0	57.0	57.0	54	40.5	1	5	270	0.00	30.161 
20:55	57.0	57.0	57.0	54	40.5	1	5	270	0.00	30.161 
21:00	57.2	57.2	57.2	54	40.7	1	6	225	0.00	30.162 
21:05	57.2	57.2	57.2	54	40.7	2	5	248	0.00	30.162 
21:10	57.2	57.2	57.2	54	40.7	2	6	248	0.00	30.162 
21:15	57.2	57.2	57.2	54	40.7	1	6	248	0.00	30.161 
21:20	57.2	57.2	57.2	54	40.7	2	5	248	0.00	30.161 
21:25	57.2	57.2	57.2	54	40.7	2	7	248	0.00	30.161 
21:30	57.2	57.2	57.2	54	40.7	2	5	248	0.00	30.166 
21:35	57.0	57.0	57.0	54	40.5	1	3	248	0.00	30.166 
21:40	57.0	57.0	57.0	54	40.5	2	5	248	0.00	30.166 
21:45	57.0	57.0	57.0	54	40.5	1	4	270	0.00	30.171 
21:50	57.0	57.0	57.0	54	40.5	1	5	270	0.00	30.171 
21:55	57.0	57.0	57.0	54	40.5	1	4	202	0.00	30.171 
22:00	57.0	57.0	57.0	54	40.5	1	5	248	0.00	30.173 
22:05	56.9	56.9	56.9	54	40.4	1	3	270	0.00	30.173 
22:10	56.9	56.9	56.9	54	40.4	1	4	270	0.00	30.173 
22:15	56.9	56.9	56.9	54	40.4	1	5	270	0.00	30.171 
22:20	56.9	56.9	56.9	54	40.4	1	5	270	0.00	30.171 
22:25	56.9	56.9	56.9	54	40.4	1	5	248	0.00	30.171 
22:30	56.9	56.9	56.9	54	40.4	1	6	248	0.00	30.172 
22:35	57.0	57.0	57.0	54	40.5	1	4	292	0.00	30.172 
22:40	56.9	56.9	56.9	54	40.4	1	6	292	0.00	30.172 
22:45	56.9	56.9	56.9	54	40.4	1	4	248	0.00	30.170 
22:50	56.9	56.9	56.9	54	40.4	1	4	248	0.00	30.170 
22:55	56.9	56.9	56.9	55	40.9	1	4	248	0.00	30.170 

CoCoRaHS
IN-AL-39
A2 Web Hosting
Creative Commons License
GoDaddy
search engine by freefind advanced

loaded 2018-11-15 18:33:40 • last modified 2010-11-18 10:43:29
Privacy PolicyDisclaimer
• wx.awcolley.com is powered by PmWiki v.2002016 •
• all content (unless otherwise noted) © 2018 A W Colley